Time;durP1;ratioP1;P1;durP2;ratioP2;P2;SDS_P1;SDS_P2;PMS_P1;PMS_P2;Temp;Humidity;BMP_temperature;BMP_pressure;BME280_temperature;BME280_humidity;BME280_pressure;Samples;Min_cycle;Max_cycle;Signal;HPM_P1;HPM_P2
2023/10/04 00:00:20;;;;;;;3.73;1.37;;;;;;;;;;5072946;28;20300;-84
2023/10/04 00:02:51;;;;;;;3.60;1.57;;;;;;;;;;5072705;28;20216;-84
2023/10/04 00:05:22;;;;;;;4.53;3.00;;;;;;;;;;5072434;28;20204;-85
2023/10/04 00:07:52;;;;;;;3.90;1.63;;;;;;;;;;5073012;28;20198;-84
2023/10/04 00:10:23;;;;;;;8.30;1.50;;;;;;;;;;5072616;28;20211;-84
2023/10/04 00:12:52;;;;;;;7.30;2.83;;;;;;;;;;5071675;28;20263;-84
2023/10/04 00:15:22;;;;;;;2.07;1.23;;;;;;;;;;5072325;28;20208;-84
2023/10/04 00:17:52;;;;;;;5.60;1.80;;;;;;;;;;5072360;28;20196;-84
2023/10/04 00:20:31;;;;;;;1.53;1.40;;;;;;;;;;5071841;28;20244;-84
2023/10/04 00:23:00;;;;;;;6.90;2.70;;;;;;;;;;5071302;28;20201;-85
2023/10/04 00:25:29;;;;;;;6.17;2.23;;;;;;;;;;5072366;28;20211;-84
2023/10/04 00:27:58;;;;;;;3.93;1.60;;;;;;;;;;5071864;28;20215;-84
2023/10/04 00:30:29;;;;;;;9.47;1.87;;;;;;;;;;5071859;28;20212;-84
2023/10/04 00:32:58;;;;;;;4.20;1.30;;;;;;;;;;5071140;28;20208;-84
2023/10/04 00:35:29;;;;;;;4.00;1.30;;;;;;;;;;5071829;28;20201;-84
2023/10/04 00:38:00;;;;;;;1.33;0.80;;;;;;;;;;5072020;28;20243;-84
2023/10/04 00:40:29;;;;;;;9.30;3.00;;;;;;;;;;5071483;28;20206;-84
2023/10/04 00:43:00;;;;;;;5.27;1.87;;;;;;;;;;5071639;28;20204;-84
2023/10/04 00:45:32;;;;;;;4.83;1.93;;;;;;;;;;5072083;28;20235;-84
2023/10/04 00:48:02;;;;;;;5.90;1.30;;;;;;;;;;5072265;28;20212;-84
2023/10/04 00:50:32;;;;;;;2.13;1.87;;;;;;;;;;5071161;28;20209;-84
2023/10/04 00:53:02;;;;;;;4.30;1.67;;;;;;;;;;5071876;28;20196;-84
2023/10/04 00:55:31;;;;;;;7.50;1.77;;;;;;;;;;5072275;28;20204;-84
2023/10/04 00:58:01;;;;;;;4.73;1.77;;;;;;;;;;5071496;28;20217;-84
2023/10/04 01:00:30;;;;;;;3.60;1.83;;;;;;;;;;5070814;28;20194;-85
2023/10/04 01:02:58;;;;;;;6.80;1.70;;;;;;;;;;5072008;28;20223;-84
2023/10/04 01:05:28;;;;;;;6.43;2.47;;;;;;;;;;5071831;28;20198;-84
2023/10/04 01:07:58;;;;;;;6.20;2.57;;;;;;;;;;5071469;28;20259;-86
2023/10/04 01:10:31;;;;;;;3.97;2.00;;;;;;;;;;5071307;28;20209;-87
2023/10/04 01:13:00;;;;;;;6.30;2.63;;;;;;;;;;5071970;28;20197;-87
2023/10/04 01:15:31;;;;;;;2.20;2.00;;;;;;;;;;5071981;28;20197;-86
2023/10/04 01:18:00;;;;;;;3.87;2.90;;;;;;;;;;5070910;28;20219;-87
2023/10/04 01:20:30;;;;;;;2.10;1.13;;;;;;;;;;5070587;28;20248;-87
2023/10/04 01:23:02;;;;;;;2.23;2.07;;;;;;;;;;5071629;28;20236;-87
2023/10/04 01:25:31;;;;;;;7.13;2.03;;;;;;;;;;5072018;28;20211;-87
2023/10/04 01:28:00;;;;;;;4.83;1.83;;;;;;;;;;5071437;28;20200;-87
2023/10/04 01:30:31;;;;;;;4.47;1.50;;;;;;;;;;5071201;28;20200;-87
2023/10/04 01:33:03;;;;;;;3.70;1.10;;;;;;;;;;5071927;28;20270;-87
2023/10/04 01:35:33;;;;;;;4.33;1.07;;;;;;;;;;5072081;28;20208;-87
2023/10/04 01:38:06;;;;;;;7.00;2.03;;;;;;;;;;5071074;28;20282;-86
2023/10/04 01:40:35;;;;;;;6.53;2.03;;;;;;;;;;5071430;28;20209;-87
2023/10/04 01:43:14;;;;;;;4.17;2.00;;;;;;;;;;5071733;28;20207;-87
2023/10/04 01:45:45;;;;;;;2.13;1.10;;;;;;;;;;5071620;28;20189;-87
2023/10/04 01:48:15;;;;;;;6.80;2.07;;;;;;;;;;5071277;28;20283;-87
2023/10/04 01:50:46;;;;;;;5.60;2.17;;;;;;;;;;5071843;28;20227;-87
2023/10/04 01:53:16;;;;;;;2.97;1.80;;;;;;;;;;5071740;28;20291;-87
2023/10/04 01:55:45;;;;;;;4.80;2.60;;;;;;;;;;5071505;28;20253;-87
2023/10/04 01:58:15;;;;;;;2.10;0.97;;;;;;;;;;5071504;28;20299;-87
2023/10/04 02:00:44;;;;;;;10.07;2.73;;;;;;;;;;5072239;28;20350;-87
2023/10/04 02:03:14;;;;;;;5.60;2.73;;;;;;;;;;5071619;28;20254;-87
2023/10/04 02:05:43;;;;;;;2.87;1.30;;;;;;;;;;5071203;28;20211;-87
2023/10/04 02:08:12;;;;;;;6.00;1.93;;;;;;;;;;5071883;28;20215;-87
2023/10/04 02:10:44;;;;;;;3.30;1.60;;;;;;;;;;5072584;28;20234;-87
2023/10/04 02:13:15;;;;;;;4.90;2.30;;;;;;;;;;5072080;28;20199;-87
2023/10/04 02:15:47;;;;;;;5.83;2.23;;;;;;;;;;5071829;28;20209;-87
2023/10/04 02:18:16;;;;;;;7.27;2.83;;;;;;;;;;5071416;28;20213;-87
2023/10/04 02:20:47;;;;;;;2.37;1.63;;;;;;;;;;5071636;28;20312;-87
2023/10/04 02:23:16;;;;;;;1.70;1.43;;;;;;;;;;5071410;28;20208;-87
2023/10/04 02:25:47;;;;;;;8.07;1.27;;;;;;;;;;5074895;28;20205;-86
2023/10/04 02:28:22;;;;;;;3.03;1.63;;;;;;;;;;5075316;28;20234;-86
2023/10/04 02:30:54;;;;;;;4.37;2.17;;;;;;;;;;5074829;28;20216;-86
2023/10/04 02:33:31;;;;;;;3.30;1.13;;;;;;;;;;5074275;28;20201;-87
2023/10/04 02:36:01;;;;;;;5.63;2.60;;;;;;;;;;5074360;28;20204;-87
2023/10/04 02:38:33;;;;;;;6.63;2.53;;;;;;;;;;5074483;28;20224;-86
2023/10/04 02:41:06;;;;;;;4.13;1.77;;;;;;;;;;5075320;28;20212;-87
2023/10/04 02:43:36;;;;;;;3.40;1.97;;;;;;;;;;5074258;28;20201;-87
2023/10/04 02:46:06;;;;;;;2.40;1.30;;;;;;;;;;5074745;28;20384;-87
2023/10/04 02:48:35;;;;;;;4.67;2.80;;;;;;;;;;5074522;28;20616;-86
2023/10/04 02:51:05;;;;;;;6.37;2.97;;;;;;;;;;5074828;28;20212;-86
2023/10/04 02:53:37;;;;;;;5.97;1.70;;;;;;;;;;5073962;28;20210;-86
2023/10/04 02:56:08;;;;;;;2.70;2.00;;;;;;;;;;5074356;28;20208;-86
2023/10/04 02:58:37;;;;;;;4.67;2.27;;;;;;;;;;5073965;28;20225;-87
2023/10/04 03:01:05;;;;;;;3.40;1.27;;;;;;;;;;5074543;28;20292;-87
2023/10/04 03:03:35;;;;;;;2.53;1.27;;;;;;;;;;5073679;28;20197;-87
2023/10/04 03:06:04;;;;;;;8.00;2.87;;;;;;;;;;5074138;28;20283;-87
2023/10/04 03:08:33;;;;;;;8.70;3.23;;;;;;;;;;5073884;28;20203;-87
2023/10/04 03:11:03;;;;;;;4.47;2.10;;;;;;;;;;5074164;28;20219;-87
2023/10/04 03:13:35;;;;;;;2.30;1.73;;;;;;;;;;5074479;28;20216;-87
2023/10/04 03:16:04;;;;;;;6.97;1.87;;;;;;;;;;5074346;28;20204;-87
2023/10/04 03:18:37;;;;;;;3.57;1.70;;;;;;;;;;5073915;28;20318;-87
2023/10/04 03:21:11;;;;;;;9.93;3.10;;;;;;;;;;5073296;28;20232;-87
2023/10/04 03:23:41;;;;;;;8.10;2.67;;;;;;;;;;5073767;28;20208;-87
2023/10/04 03:26:12;;;;;;;1.93;1.77;;;;;;;;;;5073999;28;20203;-86
2023/10/04 03:28:43;;;;;;;9.47;3.47;;;;;;;;;;5073832;28;20240;-87
2023/10/04 03:31:13;;;;;;;10.17;3.30;;;;;;;;;;5073221;28;20202;-86
2023/10/04 03:33:45;;;;;;;7.60;2.17;;;;;;;;;;5073991;28;20274;-87
2023/10/04 03:36:17;;;;;;;8.30;2.50;;;;;;;;;;5073516;28;20197;-86
2023/10/04 03:38:49;;;;;;;8.67;2.70;;;;;;;;;;5073521;28;20232;-87
2023/10/04 03:41:19;;;;;;;9.47;4.73;;;;;;;;;;5073215;28;20204;-87
2023/10/04 03:43:49;;;;;;;2.87;1.97;;;;;;;;;;5073529;28;20204;-86
2023/10/04 03:46:18;;;;;;;8.93;2.13;;;;;;;;;;5074637;28;20200;-87
2023/10/04 03:48:47;;;;;;;3.93;1.90;;;;;;;;;;5074054;28;20447;-87
2023/10/04 03:51:19;;;;;;;2.30;1.47;;;;;;;;;;5073337;28;20207;-86
2023/10/04 03:53:49;;;;;;;5.10;2.80;;;;;;;;;;5073286;28;20199;-85
2023/10/04 03:56:18;;;;;;;6.23;1.50;;;;;;;;;;5073429;28;20205;-87
2023/10/04 03:58:48;;;;;;;11.77;2.67;;;;;;;;;;5072808;28;20220;-86
2023/10/04 04:01:19;;;;;;;5.40;2.10;;;;;;;;;;5072502;28;20204;-87
2023/10/04 04:03:49;;;;;;;10.97;2.80;;;;;;;;;;5073286;28;20205;-86
2023/10/04 04:06:18;;;;;;;6.73;2.80;;;;;;;;;;5073328;28;20262;-87
2023/10/04 04:08:47;;;;;;;3.77;1.77;;;;;;;;;;5072589;28;20224;-86
2023/10/04 04:11:16;;;;;;;9.17;2.17;;;;;;;;;;5072930;28;20204;-87
2023/10/04 04:13:45;;;;;;;13.77;2.63;;;;;;;;;;5073047;28;20200;-87
2023/10/04 04:16:17;;;;;;;10.67;2.23;;;;;;;;;;5073382;28;20228;-87
2023/10/04 04:18:51;;;;;;;5.90;2.53;;;;;;;;;;5071988;28;20242;-87
2023/10/04 04:21:20;;;;;;;10.93;2.93;;;;;;;;;;5072508;28;20236;-87
2023/10/04 04:23:49;;;;;;;4.77;2.27;;;;;;;;;;5073293;28;20211;-87
2023/10/04 04:26:23;;;;;;;1.97;1.30;;;;;;;;;;5072818;28;20213;-86
2023/10/04 04:28:52;;;;;;;3.80;1.77;;;;;;;;;;5072243;28;20204;-87
2023/10/04 04:31:22;;;;;;;5.53;2.83;;;;;;;;;;5072691;28;20207;-87
2023/10/04 04:33:55;;;;;;;6.43;2.63;;;;;;;;;;5072485;28;20215;-87
2023/10/04 04:36:27;;;;;;;8.33;3.70;;;;;;;;;;5072166;28;20272;-87
2023/10/04 04:38:56;;;;;;;7.77;2.33;;;;;;;;;;5071928;28;20224;-87
2023/10/04 04:41:26;;;;;;;5.40;2.50;;;;;;;;;;5072018;28;20226;-87
2023/10/04 04:43:55;;;;;;;7.67;3.07;;;;;;;;;;5072225;28;20196;-87
2023/10/04 04:46:24;;;;;;;8.57;3.77;;;;;;;;;;5071197;28;20205;-87
2023/10/04 04:48:55;;;;;;;4.10;1.13;;;;;;;;;;5071673;28;20201;-87
2023/10/04 04:51:24;;;;;;;6.70;2.40;;;;;;;;;;5072578;28;20196;-87
2023/10/04 04:53:53;;;;;;;8.87;3.20;;;;;;;;;;5072288;28;20253;-87
2023/10/04 04:56:23;;;;;;;5.17;2.67;;;;;;;;;;5071778;28;20271;-87
2023/10/04 04:58:56;;;;;;;6.23;3.40;;;;;;;;;;5071711;28;20212;-87
2023/10/04 05:01:24;;;;;;;10.07;3.17;;;;;;;;;;5072065;28;20200;-87
2023/10/04 05:03:54;;;;;;;1.33;1.23;;;;;;;;;;5072372;28;20291;-87
2023/10/04 05:06:23;;;;;;;4.47;2.17;;;;;;;;;;5071594;28;20197;-86
2023/10/04 05:08:54;;;;;;;5.70;1.97;;;;;;;;;;5072727;28;20196;-87
2023/10/04 05:11:23;;;;;;;3.20;1.90;;;;;;;;;;5072902;28;20204;-87
2023/10/04 05:13:53;;;;;;;4.87;2.40;;;;;;;;;;5073078;28;20211;-87
2023/10/04 05:16:22;;;;;;;7.43;2.40;;;;;;;;;;5072699;28;20266;-87
2023/10/04 05:18:52;;;;;;;5.50;2.97;;;;;;;;;;5072826;28;20323;-87
2023/10/04 05:21:22;;;;;;;6.90;2.87;;;;;;;;;;5073066;28;20228;-87
2023/10/04 05:23:55;;;;;;;4.47;2.20;;;;;;;;;;5072595;28;20260;-87
2023/10/04 05:26:24;;;;;;;3.13;1.53;;;;;;;;;;5073159;28;20206;-87
2023/10/04 05:28:53;;;;;;;1.30;1.20;;;;;;;;;;5071934;28;20237;-84
2023/10/04 05:31:22;;;;;;;2.10;1.27;;;;;;;;;;5072325;28;20223;-84
2023/10/04 05:33:50;;;;;;;5.33;1.87;;;;;;;;;;5071196;28;20201;-84
2023/10/04 05:36:20;;;;;;;7.83;3.30;;;;;;;;;;5071194;28;20239;-84
2023/10/04 05:38:50;;;;;;;6.50;2.50;;;;;;;;;;5071126;28;20227;-84
2023/10/04 05:41:19;;;;;;;7.77;3.57;;;;;;;;;;5071851;28;20205;-84
2023/10/04 05:43:48;;;;;;;5.40;2.60;;;;;;;;;;5071459;28;20200;-84
2023/10/04 05:46:18;;;;;;;3.60;0.80;;;;;;;;;;5071877;28;20204;-84
2023/10/04 05:48:48;;;;;;;3.77;2.37;;;;;;;;;;5071888;28;20200;-83
2023/10/04 05:51:20;;;;;;;4.80;1.70;;;;;;;;;;5071327;28;20196;-84
2023/10/04 05:53:52;;;;;;;2.53;1.47;;;;;;;;;;5071541;28;20227;-84
2023/10/04 05:56:25;;;;;;;1.97;1.33;;;;;;;;;;5071977;28;20235;-83
2023/10/04 05:58:54;;;;;;;2.17;2.03;;;;;;;;;;5073791;28;20343;-85
2023/10/04 06:01:24;;;;;;;5.27;2.03;;;;;;;;;;5074917;28;20220;-84
2023/10/04 06:03:53;;;;;;;1.03;0.80;;;;;;;;;;5075625;28;20207;-85
2023/10/04 06:06:23;;;;;;;6.57;2.63;;;;;;;;;;5075375;28;20205;-83
2023/10/04 06:08:54;;;;;;;1.90;1.27;;;;;;;;;;5075152;28;20303;-84
2023/10/04 06:11:26;;;;;;;1.63;1.20;;;;;;;;;;5074654;28;20328;-83
2023/10/04 06:13:54;;;;;;;7.10;1.57;;;;;;;;;;5075341;28;20216;-84
2023/10/04 06:16:23;;;;;;;2.93;1.70;;;;;;;;;;5075262;28;20216;-84
2023/10/04 06:18:52;;;;;;;2.57;1.37;;;;;;;;;;5075558;28;20281;-84
2023/10/04 06:21:23;;;;;;;6.23;1.97;;;;;;;;;;5075157;28;20233;-81
2023/10/04 06:23:54;;;;;;;3.93;1.83;;;;;;;;;;5075703;28;20251;-81
2023/10/04 06:26:22;;;;;;;6.27;2.50;;;;;;;;;;5074802;28;20305;-82
2023/10/04 06:28:51;;;;;;;4.93;1.53;;;;;;;;;;5074700;28;20217;-82
2023/10/04 06:31:19;;;;;;;5.77;2.20;;;;;;;;;;5074745;28;20204;-81
2023/10/04 06:33:53;;;;;;;1.33;1.23;;;;;;;;;;5074581;28;20198;-82
2023/10/04 06:36:22;;;;;;;6.27;3.47;;;;;;;;;;5074756;28;20293;-82
2023/10/04 06:38:54;;;;;;;1.83;1.67;;;;;;;;;;5073760;28;20205;-82
2023/10/04 06:41:25;;;;;;;4.37;2.10;;;;;;;;;;5074356;28;20213;-82
2023/10/04 06:43:56;;;;;;;13.03;3.40;;;;;;;;;;5074549;28;20194;-80
2023/10/04 06:46:25;;;;;;;5.20;2.53;;;;;;;;;;5074668;28;20197;-79
2023/10/04 06:48:54;;;;;;;5.43;2.60;;;;;;;;;;5074084;28;20273;-79
2023/10/04 06:51:23;;;;;;;11.23;3.10;;;;;;;;;;5074345;28;20213;-80
2023/10/04 06:53:51;;;;;;;9.97;2.83;;;;;;;;;;5074974;28;20199;-79
2023/10/04 06:56:21;;;;;;;8.37;2.83;;;;;;;;;;5074745;28;20216;-79
2023/10/04 06:58:50;;;;;;;2.00;1.70;;;;;;;;;;5074383;28;20197;-79
2023/10/04 07:01:19;;;;;;;10.50;3.70;;;;;;;;;;5074803;28;20221;-79
2023/10/04 07:03:47;;;;;;;2.77;1.53;;;;;;;;;;5074530;28;20206;-79
2023/10/04 07:06:16;;;;;;;12.10;3.63;;;;;;;;;;5074255;28;20208;-78
2023/10/04 07:08:45;;;;;;;7.70;4.00;;;;;;;;;;5073954;28;20193;-79
2023/10/04 07:11:13;;;;;;;3.07;1.50;;;;;;;;;;5073822;28;20222;-79
2023/10/04 07:13:43;;;;;;;7.20;2.60;;;;;;;;;;5074155;28;20194;-79
2023/10/04 07:16:12;;;;;;;5.00;2.33;;;;;;;;;;5074543;28;20205;-80
2023/10/04 07:18:41;;;;;;;7.10;3.83;;;;;;;;;;5073803;28;20217;-79
2023/10/04 07:21:10;;;;;;;6.63;3.50;;;;;;;;;;5073900;28;20254;-79
2023/10/04 07:23:39;;;;;;;5.23;2.70;;;;;;;;;;5074503;28;20210;-79
2023/10/04 07:26:11;;;;;;;17.43;2.80;;;;;;;;;;5074026;28;20501;-78
2023/10/04 07:28:41;;;;;;;6.87;2.67;;;;;;;;;;5074401;28;20215;-78
2023/10/04 07:31:11;;;;;;;4.50;2.30;;;;;;;;;;5074646;28;20240;-78
2023/10/04 07:33:40;;;;;;;6.33;2.10;;;;;;;;;;5074670;28;20202;-79
2023/10/04 07:36:09;;;;;;;6.60;3.10;;;;;;;;;;5074119;28;20200;-79
2023/10/04 07:38:37;;;;;;;9.60;4.30;;;;;;;;;;5074347;28;20228;-79
2023/10/04 07:41:06;;;;;;;1.47;1.17;;;;;;;;;;5074585;28;20228;-79
2023/10/04 07:43:35;;;;;;;1.90;1.57;;;;;;;;;;5074076;28;20201;-79
2023/10/04 07:46:05;;;;;;;2.93;1.77;;;;;;;;;;5073621;28;20197;-79
2023/10/04 07:48:35;;;;;;;3.10;1.60;;;;;;;;;;5074043;28;20294;-79
2023/10/04 07:51:04;;;;;;;7.97;2.50;;;;;;;;;;5074124;28;20194;-79
2023/10/04 07:53:33;;;;;;;6.50;1.93;;;;;;;;;;5073763;28;20385;-79
2023/10/04 07:56:01;;;;;;;4.80;2.83;;;;;;;;;;5073727;28;20225;-79
2023/10/04 07:58:30;;;;;;;5.30;2.17;;;;;;;;;;5073196;28;20200;-79
2023/10/04 08:01:17;;;;;;;6.20;3.27;;;;;;;;;;5073661;28;20281;-79
2023/10/04 08:03:47;;;;;;;0.77;0.77;;;;;;;;;;5073371;28;20201;-79
2023/10/04 08:06:16;;;;;;;3.77;2.00;;;;;;;;;;5072662;28;20280;-79
2023/10/04 08:08:45;;;;;;;6.37;2.97;;;;;;;;;;5073462;28;20209;-79
2023/10/04 08:11:14;;;;;;;7.93;2.73;;;;;;;;;;5073417;28;20251;-79
2023/10/04 08:13:42;;;;;;;7.67;3.47;;;;;;;;;;5072568;28;20251;-78
2023/10/04 08:16:11;;;;;;;5.90;2.50;;;;;;;;;;5072972;28;20240;-79
2023/10/04 08:18:40;;;;;;;4.83;2.87;;;;;;;;;;5073350;28;20277;-79
2023/10/04 08:21:10;;;;;;;4.10;1.90;;;;;;;;;;5071689;28;20230;-79
2023/10/04 08:23:38;;;;;;;7.17;3.30;;;;;;;;;;5072872;28;20288;-79
2023/10/04 08:26:14;;;;;;;4.77;2.63;;;;;;;;;;5073382;28;20216;-79
2023/10/04 08:28:42;;;;;;;10.27;1.70;;;;;;;;;;5073479;28;20204;-79
2023/10/04 08:31:13;;;;;;;5.47;2.93;;;;;;;;;;5073011;28;20193;-78
2023/10/04 08:33:43;;;;;;;5.77;1.90;;;;;;;;;;5072896;28;20198;-82
2023/10/04 08:36:16;;;;;;;3.10;2.10;;;;;;;;;;5073078;28;20259;-78
2023/10/04 08:38:45;;;;;;;3.90;2.30;;;;;;;;;;5073110;28;20202;-79
2023/10/04 08:41:16;;;;;;;0.80;0.80;;;;;;;;;;5072643;28;20285;-78
2023/10/04 08:43:45;;;;;;;3.07;1.47;;;;;;;;;;5072943;28;20210;-78
2023/10/04 08:46:15;;;;;;;8.43;3.57;;;;;;;;;;5073021;28;20201;-79
2023/10/04 08:48:49;;;;;;;8.30;2.23;;;;;;;;;;5072297;28;20201;-78
2023/10/04 08:51:27;;;;;;;4.60;2.57;;;;;;;;;;5072629;28;20200;-78
2023/10/04 08:54:02;;;;;;;5.90;2.63;;;;;;;;;;5072781;28;20233;-79
2023/10/04 08:56:34;;;;;;;8.70;2.47;;;;;;;;;;5072728;28;20220;-79
2023/10/04 08:59:03;;;;;;;6.13;2.67;;;;;;;;;;5072332;28;20220;-80
2023/10/04 09:01:32;;;;;;;9.03;4.20;;;;;;;;;;5071989;28;20224;-79
2023/10/04 09:04:03;;;;;;;8.80;3.03;;;;;;;;;;5072086;28;20193;-80
2023/10/04 09:06:34;;;;;;;5.60;2.20;;;;;;;;;;5072265;28;20294;-79
2023/10/04 09:09:05;;;;;;;5.47;2.57;;;;;;;;;;5072308;28;20203;-79
2023/10/04 09:11:33;;;;;;;4.90;2.53;;;;;;;;;;5071902;28;20197;-79
2023/10/04 09:14:03;;;;;;;11.53;4.87;;;;;;;;;;5071891;28;20204;-80
2023/10/04 09:16:32;;;;;;;4.93;2.80;;;;;;;;;;5072030;28;20204;-79
2023/10/04 09:19:07;;;;;;;3.03;1.53;;;;;;;;;;5071624;28;20217;-79
2023/10/04 09:21:38;;;;;;;2.33;0.97;;;;;;;;;;5071517;28;20234;-79
2023/10/04 09:24:09;;;;;;;4.03;1.63;;;;;;;;;;5071873;28;20205;-79
2023/10/04 09:26:38;;;;;;;3.03;1.63;;;;;;;;;;5071958;28;20205;-79
2023/10/04 09:29:07;;;;;;;2.30;1.23;;;;;;;;;;5071471;28;20251;-79
2023/10/04 09:31:56;;;;;;;3.03;1.60;;;;;;;;;;5071449;28;20194;-79
2023/10/04 09:34:25;;;;;;;4.17;2.30;;;;;;;;;;5073749;28;20203;-79
2023/10/04 09:36:54;;;;;;;2.23;1.50;;;;;;;;;;5075917;28;20209;-79
2023/10/04 09:39:28;;;;;;;4.67;1.93;;;;;;;;;;5075263;28;20201;-79
2023/10/04 09:41:57;;;;;;;4.13;2.23;;;;;;;;;;5075535;28;20206;-79
2023/10/04 09:44:26;;;;;;;3.03;1.00;;;;;;;;;;5075641;28;20193;-79
2023/10/04 09:46:59;;;;;;;4.60;2.27;;;;;;;;;;5075483;28;20198;-80
2023/10/04 09:49:31;;;;;;;2.50;1.43;;;;;;;;;;5074888;28;20193;-79
2023/10/04 09:52:02;;;;;;;5.63;2.30;;;;;;;;;;5075559;28;20232;-79
2023/10/04 09:54:31;;;;;;;1.80;1.30;;;;;;;;;;5075216;28;20236;-80
2023/10/04 09:57:00;;;;;;;5.40;2.17;;;;;;;;;;5075272;28;20233;-80
2023/10/04 09:59:29;;;;;;;4.33;2.07;;;;;;;;;;5075458;28;20301;-79
2023/10/04 10:01:59;;;;;;;4.97;2.30;;;;;;;;;;5075703;28;20293;-79
2023/10/04 10:04:28;;;;;;;5.77;2.97;;;;;;;;;;5075271;28;20229;-79
2023/10/04 10:07:10;;;;;;;3.67;2.37;;;;;;;;;;5075000;28;20194;-80
2023/10/04 10:09:46;;;;;;;4.87;2.53;;;;;;;;;;5075244;28;20292;-79
2023/10/04 10:12:30;;;;;;;4.57;2.17;;;;;;;;;;5075746;28;20379;-79
2023/10/04 10:15:00;;;;;;;5.90;3.13;;;;;;;;;;5074851;28;20196;-79
2023/10/04 10:17:30;;;;;;;2.10;1.37;;;;;;;;;;5074570;28;20197;-80
2023/10/04 10:20:00;;;;;;;3.50;1.97;;;;;;;;;;5074698;28;20294;-80
2023/10/04 10:22:30;;;;;;;8.40;2.70;;;;;;;;;;5075045;28;20268;-79
2023/10/04 10:25:14;;;;;;;6.27;2.53;;;;;;;;;;5074712;28;20205;-80
2023/10/04 10:27:44;;;;;;;6.37;2.60;;;;;;;;;;5074935;28;20208;-79
2023/10/04 10:30:16;;;;;;;2.77;1.97;;;;;;;;;;5075207;28;20210;-79
2023/10/04 10:32:53;;;;;;;8.80;3.67;;;;;;;;;;5075516;28;20221;-79
2023/10/04 10:35:40;;;;;;;4.83;2.10;;;;;;;;;;5075016;28;20206;-79
2023/10/04 10:38:27;;;;;;;7.10;2.90;;;;;;;;;;5075230;28;20213;-79
2023/10/04 10:40:57;;;;;;;29.50;4.03;;;;;;;;;;5075146;28;20201;-79
2023/10/04 10:43:26;;;;;;;4.80;2.73;;;;;;;;;;5074393;28;20218;-79
2023/10/04 10:45:56;;;;;;;4.13;2.20;;;;;;;;;;5073496;28;20193;-79
2023/10/04 10:48:33;;;;;;;6.07;2.43;;;;;;;;;;5075253;28;20237;-78
2023/10/04 10:51:02;;;;;;;7.53;2.83;;;;;;;;;;5074408;28;20244;-79
2023/10/04 10:53:30;;;;;;;7.33;1.63;;;;;;;;;;5074584;28;20203;-80
2023/10/04 10:56:01;;;;;;;4.30;1.93;;;;;;;;;;5074188;28;20203;-79
2023/10/04 10:58:29;;;;;;;6.27;1.83;;;;;;;;;;5074830;28;20224;-79
2023/10/04 11:00:58;;;;;;;3.37;2.67;;;;;;;;;;5074754;28;20201;-79
2023/10/04 11:03:27;;;;;;;4.13;1.70;;;;;;;;;;5074307;28;20317;-79
2023/10/04 11:06:00;;;;;;;5.20;1.87;;;;;;;;;;5074590;28;20213;-79
2023/10/04 11:08:30;;;;;;;3.57;1.90;;;;;;;;;;5074844;28;20195;-79
2023/10/04 11:11:00;;;;;;;2.60;1.53;;;;;;;;;;5074667;28;20239;-79
2023/10/04 11:13:33;;;;;;;3.23;2.23;;;;;;;;;;5074053;28;20203;-79
2023/10/04 11:16:02;;;;;;;3.47;1.77;;;;;;;;;;5074112;28;20297;-80
2023/10/04 11:18:30;;;;;;;5.60;2.43;;;;;;;;;;5074425;28;20221;-80
2023/10/04 11:21:04;;;;;;;5.60;2.57;;;;;;;;;;5073679;28;20257;-79
2023/10/04 11:23:34;;;;;;;3.97;1.80;;;;;;;;;;5073827;28;20226;-79
2023/10/04 11:26:04;;;;;;;6.13;2.83;;;;;;;;;;5073812;28;20196;-79
2023/10/04 11:28:34;;;;;;;8.63;2.47;;;;;;;;;;5073927;28;20228;-79
2023/10/04 11:31:03;;;;;;;5.40;1.63;;;;;;;;;;5073531;28;20208;-79
2023/10/04 11:33:31;;;;;;;4.37;2.10;;;;;;;;;;5074094;28;20253;-79
2023/10/04 11:36:02;;;;;;;4.67;1.97;;;;;;;;;;5074000;28;20209;-79
2023/10/04 11:38:32;;;;;;;2.30;1.80;;;;;;;;;;5073881;28;20208;-82
2023/10/04 11:41:01;;;;;;;14.10;2.97;;;;;;;;;;5073728;28;20206;-83
2023/10/04 11:43:29;;;;;;;1.93;1.13;;;;;;;;;;5073129;28;20252;-82
2023/10/04 11:46:03;;;;;;;2.93;1.17;;;;;;;;;;5074156;28;20202;-79
2023/10/04 11:48:32;;;;;;;5.23;1.97;;;;;;;;;;5073685;28;20209;-79
2023/10/04 11:51:04;;;;;;;5.60;1.77;;;;;;;;;;5073669;28;20203;-78
2023/10/04 11:53:35;;;;;;;4.30;1.37;;;;;;;;;;5074169;28;20191;-79
2023/10/04 11:56:06;;;;;;;8.63;1.93;;;;;;;;;;5073529;28;20201;-79
2023/10/04 11:58:43;;;;;;;5.80;1.47;;;;;;;;;;5073957;28;20290;-78
2023/10/04 12:01:16;;;;;;;12.00;2.23;;;;;;;;;;5073893;28;20204;-79
2023/10/04 12:03:46;;;;;;;2.07;1.20;;;;;;;;;;5073933;28;20219;-79
2023/10/04 12:06:15;;;;;;;8.67;3.23;;;;;;;;;;5073868;28;20232;-79
2023/10/04 12:08:44;;;;;;;4.93;1.50;;;;;;;;;;5073536;28;20202;-78
2023/10/04 12:11:17;;;;;;;3.03;2.20;;;;;;;;;;5073477;28;20206;-79
2023/10/04 12:13:45;;;;;;;7.13;1.93;;;;;;;;;;5074026;28;20194;-78
2023/10/04 12:16:16;;;;;;;2.10;1.60;;;;;;;;;;5073778;28;20208;-78
2023/10/04 12:18:45;;;;;;;4.90;1.33;;;;;;;;;;5073074;28;20314;-77
2023/10/04 12:21:14;;;;;;;3.33;1.03;;;;;;;;;;5073313;28;20226;-79
2023/10/04 12:23:43;;;;;;;1.47;0.90;;;;;;;;;;5073538;28;20225;-77
2023/10/04 12:26:11;;;;;;;3.23;1.63;;;;;;;;;;5073566;28;20206;-78
2023/10/04 12:28:40;;;;;;;4.20;1.60;;;;;;;;;;5072965;28;20225;-79
2023/10/04 12:31:10;;;;;;;1.30;1.20;;;;;;;;;;5073162;28;20202;-78
2023/10/04 12:33:40;;;;;;;7.03;2.20;;;;;;;;;;5073368;28;20213;-78
2023/10/04 12:36:09;;;;;;;1.90;1.07;;;;;;;;;;5073370;28;20255;-79
2023/10/04 12:38:38;;;;;;;7.43;1.27;;;;;;;;;;5072768;28;20230;-79
2023/10/04 12:41:06;;;;;;;2.20;1.30;;;;;;;;;;5073311;28;20206;-79
2023/10/04 12:43:36;;;;;;;1.37;0.87;;;;;;;;;;5072881;28;20223;-78
2023/10/04 12:46:05;;;;;;;1.17;1.00;;;;;;;;;;5073413;28;20208;-79
2023/10/04 12:48:34;;;;;;;2.17;1.47;;;;;;;;;;5072579;28;20222;-79
2023/10/04 12:51:04;;;;;;;5.23;1.27;;;;;;;;;;5072708;28;20238;-78
2023/10/04 12:53:33;;;;;;;1.07;0.90;;;;;;;;;;5073352;28;20206;-78
2023/10/04 12:56:03;;;;;;;3.53;1.57;;;;;;;;;;5073252;28;20261;-79
2023/10/04 12:58:33;;;;;;;2.90;1.37;;;;;;;;;;5072583;28;20206;-78
2023/10/04 13:01:05;;;;;;;1.57;1.10;;;;;;;;;;5072822;28;20277;-79
2023/10/04 13:03:34;;;;;;;1.47;1.20;;;;;;;;;;5072929;28;20222;-79
2023/10/04 13:06:10;;;;;;;6.97;1.43;;;;;;;;;;5073007;28;20198;-78
2023/10/04 13:08:39;;;;;;;10.43;2.23;;;;;;;;;;5072130;28;20209;-78
2023/10/04 13:11:11;;;;;;;5.03;3.53;;;;;;;;;;5073146;28;20197;-79
2023/10/04 13:13:40;;;;;;;2.27;1.23;;;;;;;;;;5072874;28;20194;-79
2023/10/04 13:16:09;;;;;;;4.20;2.07;;;;;;;;;;5072432;28;20290;-79
2023/10/04 13:18:38;;;;;;;4.27;2.30;;;;;;;;;;5072826;28;20230;-80
2023/10/04 13:21:10;;;;;;;1.63;0.90;;;;;;;;;;5072149;28;20251;-80
2023/10/04 13:23:39;;;;;;;1.97;0.87;;;;;;;;;;5072077;28;20257;-79
2023/10/04 13:26:10;;;;;;;6.23;1.50;;;;;;;;;;5072388;28;20205;-78
2023/10/04 13:28:38;;;;;;;23.97;2.00;;;;;;;;;;5071920;28;20313;-79
2023/10/04 13:31:07;;;;;;;3.77;1.93;;;;;;;;;;5072265;28;20246;-80
2023/10/04 13:33:36;;;;;;;6.27;2.30;;;;;;;;;;5072228;28;20225;-79
2023/10/04 13:36:05;;;;;;;4.70;2.07;;;;;;;;;;5072043;28;20294;-80
2023/10/04 13:38:35;;;;;;;1.70;1.17;;;;;;;;;;5072529;28;20234;-79
2023/10/04 13:41:03;;;;;;;3.33;3.00;;;;;;;;;;5072508;28;20204;-79
2023/10/04 13:43:32;;;;;;;0.87;0.80;;;;;;;;;;5071704;28;20282;-79
2023/10/04 13:46:03;;;;;;;6.67;2.53;;;;;;;;;;5072220;28;20201;-79
2023/10/04 13:48:32;;;;;;;2.60;1.30;;;;;;;;;;5072268;28;20203;-79
2023/10/04 13:51:01;;;;;;;5.70;2.13;;;;;;;;;;5072566;28;20237;-79
2023/10/04 13:53:29;;;;;;;1.87;1.23;;;;;;;;;;5071952;28;20216;-79
2023/10/04 13:56:00;;;;;;;2.90;1.70;;;;;;;;;;5072239;28;20320;-79
2023/10/04 13:58:28;;;;;;;3.03;1.57;;;;;;;;;;5072480;28;20206;-78
2023/10/04 14:01:02;;;;;;;8.93;2.27;;;;;;;;;;5071643;28;20263;-79
2023/10/04 14:03:33;;;;;;;3.50;1.17;;;;;;;;;;5072036;28;20214;-79
2023/10/04 14:06:06;;;;;;;5.07;1.50;;;;;;;;;;5071475;28;20212;-79
2023/10/04 14:08:35;;;;;;;1.33;1.23;;;;;;;;;;5072236;28;20204;-79
2023/10/04 14:11:05;;;;;;;2.00;1.10;;;;;;;;;;5072009;28;20196;-79
2023/10/04 14:13:36;;;;;;;5.97;1.13;;;;;;;;;;5071929;28;20195;-79
2023/10/04 14:16:06;;;;;;;3.40;1.67;;;;;;;;;;5072263;28;20299;-79
2023/10/04 14:18:35;;;;;;;1.70;0.90;;;;;;;;;;5072358;28;20237;-81
2023/10/04 14:21:07;;;;;;;3.93;1.50;;;;;;;;;;5074435;28;20321;-81
2023/10/04 14:23:35;;;;;;;13.70;6.33;;;;;;;;;;5074646;28;20226;-82
2023/10/04 14:26:05;;;;;;;2.70;1.57;;;;;;;;;;5074713;28;20233;-81
2023/10/04 14:28:35;;;;;;;2.07;1.30;;;;;;;;;;5075039;28;20268;-81
2023/10/04 14:31:03;;;;;;;6.10;1.50;;;;;;;;;;5074034;28;20203;-82
2023/10/04 14:33:32;;;;;;;4.83;1.97;;;;;;;;;;5075264;28;20250;-81
2023/10/04 14:36:00;;;;;;;3.37;2.13;;;;;;;;;;5074501;28;20225;-81
2023/10/04 14:38:29;;;;;;;4.80;2.07;;;;;;;;;;5074656;28;20205;-81
2023/10/04 14:40:58;;;;;;;4.17;1.27;;;;;;;;;;5074027;28;20237;-82
2023/10/04 14:43:32;;;;;;;5.10;1.80;;;;;;;;;;5074629;28;20197;-82
2023/10/04 14:46:03;;;;;;;2.67;1.90;;;;;;;;;;5075384;28;20211;-82
2023/10/04 14:48:32;;;;;;;3.53;1.07;;;;;;;;;;5075346;28;20198;-82
2023/10/04 14:51:01;;;;;;;6.53;1.97;;;;;;;;;;5073579;28;20190;-81
2023/10/04 14:53:40;;;;;;;3.93;2.10;;;;;;;;;;5074718;28;20341;-82
2023/10/04 14:56:10;;;;;;;1.43;1.33;;;;;;;;;;5074292;28;20202;-82
2023/10/04 14:58:40;;;;;;;1.60;1.07;;;;;;;;;;5073774;28;20198;-82
2023/10/04 15:01:12;;;;;;;4.17;1.40;;;;;;;;;;5073499;28;20198;-82